sensor_id;sensor_type;location;lat;lon;timestamp;P1;durP1;ratioP1;P2;durP2;ratioP2
57826;SDS011;43656;57.746;11.780;2023-03-21T00:00:25;2.78;;;2.20;;
57826;SDS011;43656;57.746;11.780;2023-03-21T00:02:50;3.28;;;1.90;;
57826;SDS011;43656;57.746;11.780;2023-03-21T00:05:16;3.75;;;2.10;;
57826;SDS011;43656;57.746;11.780;2023-03-21T00:07:42;2.92;;;2.38;;
57826;SDS011;43656;57.746;11.780;2023-03-21T00:10:08;2.70;;;2.05;;
57826;SDS011;43656;57.746;11.780;2023-03-21T00:12:34;2.90;;;1.77;;
57826;SDS011;43656;57.746;11.780;2023-03-21T00:15:02;1.92;;;1.60;;
57826;SDS011;43656;57.746;11.780;2023-03-21T00:17:32;1.50;;;1.23;;
57826;SDS011;43656;57.746;11.780;2023-03-21T00:19:58;1.88;;;1.20;;
57826;SDS011;43656;57.746;11.780;2023-03-21T00:22:25;1.42;;;1.10;;
57826;SDS011;43656;57.746;11.780;2023-03-21T00:24:52;1.60;;;0.98;;
57826;SDS011;43656;57.746;11.780;2023-03-21T00:27:20;1.13;;;0.77;;
57826;SDS011;43656;57.746;11.780;2023-03-21T00:29:46;1.77;;;0.90;;
57826;SDS011;43656;57.746;11.780;2023-03-21T00:32:15;0.82;;;0.55;;
57826;SDS011;43656;57.746;11.780;2023-03-21T00:34:42;0.90;;;0.80;;
57826;SDS011;43656;57.746;11.780;2023-03-21T00:37:08;1.02;;;0.90;;
57826;SDS011;43656;57.746;11.780;2023-03-21T00:39:36;0.70;;;0.60;;
57826;SDS011;43656;57.746;11.780;2023-03-21T00:42:02;0.60;;;0.60;;
57826;SDS011;43656;57.746;11.780;2023-03-21T00:44:28;1.17;;;0.80;;
57826;SDS011;43656;57.746;11.780;2023-03-21T00:46:53;1.25;;;0.82;;
57826;SDS011;43656;57.746;11.780;2023-03-21T00:49:19;0.60;;;0.60;;
57826;SDS011;43656;57.746;11.780;2023-03-21T00:51:45;0.88;;;0.60;;
57826;SDS011;43656;57.746;11.780;2023-03-21T00:54:11;0.52;;;0.50;;
57826;SDS011;43656;57.746;11.780;2023-03-21T00:56:37;0.75;;;0.60;;
57826;SDS011;43656;57.746;11.780;2023-03-21T00:59:02;0.90;;;0.68;;
57826;SDS011;43656;57.746;11.780;2023-03-21T01:01:28;1.33;;;0.70;;
57826;SDS011;43656;57.746;11.780;2023-03-21T01:03:59;0.93;;;0.75;;
57826;SDS011;43656;57.746;11.780;2023-03-21T01:06:31;1.08;;;0.70;;
57826;SDS011;43656;57.746;11.780;2023-03-21T01:09:03;1.23;;;0.70;;
57826;SDS011;43656;57.746;11.780;2023-03-21T01:11:30;1.00;;;0.70;;
57826;SDS011;43656;57.746;11.780;2023-03-21T01:13:56;1.08;;;0.65;;
57826;SDS011;43656;57.746;11.780;2023-03-21T01:16:21;0.90;;;0.50;;
57826;SDS011;43656;57.746;11.780;2023-03-21T01:18:47;1.40;;;0.60;;
57826;SDS011;43656;57.746;11.780;2023-03-21T01:21:13;1.38;;;0.70;;
57826;SDS011;43656;57.746;11.780;2023-03-21T01:23:39;0.65;;;0.50;;
57826;SDS011;43656;57.746;11.780;2023-03-21T01:26:07;0.88;;;0.60;;
57826;SDS011;43656;57.746;11.780;2023-03-21T01:28:37;0.57;;;0.40;;
57826;SDS011;43656;57.746;11.780;2023-03-21T01:31:05;0.65;;;0.50;;
57826;SDS011;43656;57.746;11.780;2023-03-21T01:33:31;0.65;;;0.60;;
57826;SDS011;43656;57.746;11.780;2023-03-21T01:35:57;0.50;;;0.50;;
57826;SDS011;43656;57.746;11.780;2023-03-21T01:38:23;0.60;;;0.50;;
57826;SDS011;43656;57.746;11.780;2023-03-21T01:40:50;1.38;;;0.60;;
57826;SDS011;43656;57.746;11.780;2023-03-21T01:48:41;2.15;;;1.00;;
57826;SDS011;43656;57.746;11.780;2023-03-21T01:51:08;0.77;;;0.70;;
57826;SDS011;43656;57.746;11.780;2023-03-21T01:53:36;1.00;;;0.80;;
57826;SDS011;43656;57.746;11.780;2023-03-21T01:56:05;1.13;;;1.00;;
57826;SDS011;43656;57.746;11.780;2023-03-21T01:58:36;1.35;;;0.70;;
57826;SDS011;43656;57.746;11.780;2023-03-21T02:01:04;1.13;;;0.90;;
57826;SDS011;43656;57.746;11.780;2023-03-21T02:03:30;1.38;;;1.20;;
57826;SDS011;43656;57.746;11.780;2023-03-21T02:06:06;1.95;;;1.40;;
57826;SDS011;43656;57.746;11.780;2023-03-21T02:08:37;2.47;;;1.60;;
57826;SDS011;43656;57.746;11.780;2023-03-21T02:11:04;2.03;;;1.63;;
57826;SDS011;43656;57.746;11.780;2023-03-21T02:13:33;2.10;;;1.85;;
57826;SDS011;43656;57.746;11.780;2023-03-21T02:19:13;3.17;;;2.58;;
57826;SDS011;43656;57.746;11.780;2023-03-21T02:22:13;3.78;;;3.38;;
57826;SDS011;43656;57.746;11.780;2023-03-21T02:25:07;6.25;;;4.80;;
57826;SDS011;43656;57.746;11.780;2023-03-21T02:36:26;5.07;;;4.50;;
57826;SDS011;43656;57.746;11.780;2023-03-21T02:47:03;6.22;;;5.63;;
57826;SDS011;43656;57.746;11.780;2023-03-21T02:49:38;6.00;;;5.40;;
57826;SDS011;43656;57.746;11.780;2023-03-21T02:52:17;6.70;;;5.95;;
57826;SDS011;43656;57.746;11.780;2023-03-21T02:54:46;7.28;;;6.57;;
57826;SDS011;43656;57.746;11.780;2023-03-21T02:57:15;7.60;;;6.03;;
57826;SDS011;43656;57.746;11.780;2023-03-21T02:59:43;6.90;;;5.80;;
57826;SDS011;43656;57.746;11.780;2023-03-21T03:02:12;7.00;;;6.30;;
57826;SDS011;43656;57.746;11.780;2023-03-21T03:04:38;6.35;;;5.75;;
57826;SDS011;43656;57.746;11.780;2023-03-21T03:23:38;7.47;;;6.63;;
57826;SDS011;43656;57.746;11.780;2023-03-21T03:26:31;7.13;;;6.18;;
57826;SDS011;43656;57.746;11.780;2023-03-21T03:29:03;8.02;;;6.47;;
57826;SDS011;43656;57.746;11.780;2023-03-21T03:31:32;6.95;;;6.20;;
57826;SDS011;43656;57.746;11.780;2023-03-21T03:34:05;6.22;;;5.63;;
57826;SDS011;43656;57.746;11.780;2023-03-21T03:36:34;6.43;;;5.82;;
57826;SDS011;43656;57.746;11.780;2023-03-21T03:39:06;6.45;;;5.30;;
57826;SDS011;43656;57.746;11.780;2023-03-21T03:41:36;6.03;;;5.22;;
57826;SDS011;43656;57.746;11.780;2023-03-21T03:44:08;6.43;;;5.35;;
57826;SDS011;43656;57.746;11.780;2023-03-21T03:46:49;5.95;;;5.15;;
57826;SDS011;43656;57.746;11.780;2023-03-21T03:49:22;5.88;;;4.93;;
57826;SDS011;43656;57.746;11.780;2023-03-21T03:51:53;5.28;;;4.78;;
57826;SDS011;43656;57.746;11.780;2023-03-21T03:54:27;5.43;;;4.70;;
57826;SDS011;43656;57.746;11.780;2023-03-21T03:56:57;6.03;;;5.43;;
57826;SDS011;43656;57.746;11.780;2023-03-21T03:59:23;7.50;;;5.00;;
57826;SDS011;43656;57.746;11.780;2023-03-21T04:01:49;6.90;;;5.40;;
57826;SDS011;43656;57.746;11.780;2023-03-21T04:04:15;7.35;;;4.28;;
57826;SDS011;43656;57.746;11.780;2023-03-21T04:06:44;4.20;;;3.80;;
57826;SDS011;43656;57.746;11.780;2023-03-21T04:09:15;5.25;;;3.75;;
57826;SDS011;43656;57.746;11.780;2023-03-21T04:11:42;4.30;;;3.90;;
57826;SDS011;43656;57.746;11.780;2023-03-21T04:14:07;4.13;;;3.72;;
57826;SDS011;43656;57.746;11.780;2023-03-21T04:16:33;3.55;;;3.25;;
57826;SDS011;43656;57.746;11.780;2023-03-21T04:18:58;4.05;;;3.65;;
57826;SDS011;43656;57.746;11.780;2023-03-21T04:21:24;3.90;;;3.45;;
57826;SDS011;43656;57.746;11.780;2023-03-21T04:23:51;4.82;;;3.42;;
57826;SDS011;43656;57.746;11.780;2023-03-21T04:26:18;3.78;;;2.53;;
57826;SDS011;43656;57.746;11.780;2023-03-21T04:28:45;3.00;;;2.10;;
57826;SDS011;43656;57.746;11.780;2023-03-21T04:31:11;2.72;;;2.30;;
57826;SDS011;43656;57.746;11.780;2023-03-21T04:33:37;3.28;;;2.72;;
57826;SDS011;43656;57.746;11.780;2023-03-21T04:36:04;2.80;;;2.38;;
57826;SDS011;43656;57.746;11.780;2023-03-21T04:38:30;4.30;;;2.60;;
57826;SDS011;43656;57.746;11.780;2023-03-21T04:40:58;2.60;;;2.22;;
57826;SDS011;43656;57.746;11.780;2023-03-21T04:43:24;2.72;;;2.30;;
57826;SDS011;43656;57.746;11.780;2023-03-21T04:45:50;4.32;;;2.30;;
57826;SDS011;43656;57.746;11.780;2023-03-21T04:48:16;2.47;;;2.28;;
57826;SDS011;43656;57.746;11.780;2023-03-21T04:50:48;3.17;;;2.33;;
57826;SDS011;43656;57.746;11.780;2023-03-21T04:53:14;2.60;;;2.40;;
57826;SDS011;43656;57.746;11.780;2023-03-21T04:55:39;3.30;;;2.75;;
57826;SDS011;43656;57.746;11.780;2023-03-21T04:58:05;2.60;;;2.40;;
57826;SDS011;43656;57.746;11.780;2023-03-21T05:00:30;3.13;;;2.40;;
57826;SDS011;43656;57.746;11.780;2023-03-21T05:03:01;2.65;;;2.22;;
57826;SDS011;43656;57.746;11.780;2023-03-21T05:05:29;3.22;;;2.80;;
57826;SDS011;43656;57.746;11.780;2023-03-21T05:07:55;3.17;;;2.10;;
57826;SDS011;43656;57.746;11.780;2023-03-21T05:10:21;2.10;;;1.90;;
57826;SDS011;43656;57.746;11.780;2023-03-21T05:12:46;2.08;;;1.67;;
57826;SDS011;43656;57.746;11.780;2023-03-21T05:15:12;2.10;;;1.77;;
57826;SDS011;43656;57.746;11.780;2023-03-21T05:17:37;2.20;;;1.70;;
57826;SDS011;43656;57.746;11.780;2023-03-21T05:20:03;2.05;;;1.77;;
57826;SDS011;43656;57.746;11.780;2023-03-21T05:22:30;3.20;;;1.77;;
57826;SDS011;43656;57.746;11.780;2023-03-21T05:25:07;2.10;;;1.90;;
57826;SDS011;43656;57.746;11.780;2023-03-21T05:27:34;3.80;;;2.25;;
57826;SDS011;43656;57.746;11.780;2023-03-21T05:32:26;2.15;;;1.60;;
57826;SDS011;43656;57.746;11.780;2023-03-21T05:34:51;2.25;;;1.55;;
57826;SDS011;43656;57.746;11.780;2023-03-21T05:37:17;4.88;;;1.80;;
57826;SDS011;43656;57.746;11.780;2023-03-21T05:39:42;1.80;;;1.70;;
57826;SDS011;43656;57.746;11.780;2023-03-21T05:42:08;2.75;;;2.00;;
57826;SDS011;43656;57.746;11.780;2023-03-21T05:44:33;2.95;;;2.50;;
57826;SDS011;43656;57.746;11.780;2023-03-21T05:46:59;3.10;;;2.42;;
57826;SDS011;43656;57.746;11.780;2023-03-21T05:49:24;2.55;;;2.20;;
57826;SDS011;43656;57.746;11.780;2023-03-21T05:51:51;4.10;;;2.13;;
57826;SDS011;43656;57.746;11.780;2023-03-21T05:54:16;2.53;;;2.33;;
57826;SDS011;43656;57.746;11.780;2023-03-21T05:56:41;2.90;;;2.47;;
57826;SDS011;43656;57.746;11.780;2023-03-21T05:59:07;3.33;;;2.60;;
57826;SDS011;43656;57.746;11.780;2023-03-21T06:01:32;5.00;;;2.53;;
57826;SDS011;43656;57.746;11.780;2023-03-21T06:03:58;2.60;;;2.30;;
57826;SDS011;43656;57.746;11.780;2023-03-21T06:06:23;3.45;;;2.90;;
57826;SDS011;43656;57.746;11.780;2023-03-21T06:08:49;3.55;;;2.53;;
57826;SDS011;43656;57.746;11.780;2023-03-21T06:11:19;3.17;;;2.60;;
57826;SDS011;43656;57.746;11.780;2023-03-21T06:13:48;5.00;;;2.60;;
57826;SDS011;43656;57.746;11.780;2023-03-21T06:16:14;2.50;;;2.28;;
57826;SDS011;43656;57.746;11.780;2023-03-21T06:18:39;2.03;;;1.83;;
57826;SDS011;43656;57.746;11.780;2023-03-21T06:21:05;2.35;;;1.90;;
57826;SDS011;43656;57.746;11.780;2023-03-21T06:23:30;2.67;;;2.20;;
57826;SDS011;43656;57.746;11.780;2023-03-21T06:25:56;1.90;;;1.75;;
57826;SDS011;43656;57.746;11.780;2023-03-21T06:28:21;2.80;;;2.17;;
57826;SDS011;43656;57.746;11.780;2023-03-21T06:30:47;2.42;;;1.98;;
57826;SDS011;43656;57.746;11.780;2023-03-21T06:33:12;2.70;;;2.30;;
57826;SDS011;43656;57.746;11.780;2023-03-21T06:35:38;2.92;;;2.00;;
57826;SDS011;43656;57.746;11.780;2023-03-21T06:38:03;2.20;;;2.00;;
57826;SDS011;43656;57.746;11.780;2023-03-21T06:40:29;2.53;;;1.80;;
57826;SDS011;43656;57.746;11.780;2023-03-21T06:42:54;2.05;;;1.77;;
57826;SDS011;43656;57.746;11.780;2023-03-21T06:45:19;2.88;;;1.92;;
57826;SDS011;43656;57.746;11.780;2023-03-21T06:47:45;4.85;;;2.03;;
57826;SDS011;43656;57.746;11.780;2023-03-21T06:50:10;3.97;;;1.83;;
57826;SDS011;43656;57.746;11.780;2023-03-21T06:52:36;2.92;;;2.03;;
57826;SDS011;43656;57.746;11.780;2023-03-21T06:55:01;4.60;;;1.98;;
57826;SDS011;43656;57.746;11.780;2023-03-21T06:57:27;2.90;;;2.10;;
57826;SDS011;43656;57.746;11.780;2023-03-21T06:59:52;3.05;;;1.90;;
57826;SDS011;43656;57.746;11.780;2023-03-21T07:02:17;4.82;;;2.17;;
57826;SDS011;43656;57.746;11.780;2023-03-21T07:04:43;4.03;;;2.38;;
57826;SDS011;43656;57.746;11.780;2023-03-21T07:07:09;5.18;;;2.00;;
57826;SDS011;43656;57.746;11.780;2023-03-21T07:09:34;3.38;;;2.50;;
57826;SDS011;43656;57.746;11.780;2023-03-21T07:12:00;3.03;;;2.10;;
57826;SDS011;43656;57.746;11.780;2023-03-21T07:14:26;3.95;;;2.22;;
57826;SDS011;43656;57.746;11.780;2023-03-21T07:16:51;4.72;;;2.00;;
57826;SDS011;43656;57.746;11.780;2023-03-21T07:19:17;3.70;;;1.90;;
57826;SDS011;43656;57.746;11.780;2023-03-21T07:21:42;2.78;;;1.50;;
57826;SDS011;43656;57.746;11.780;2023-03-21T07:24:07;2.67;;;1.60;;
57826;SDS011;43656;57.746;11.780;2023-03-21T07:26:33;2.70;;;1.50;;
57826;SDS011;43656;57.746;11.780;2023-03-21T07:28:58;2.85;;;1.58;;
57826;SDS011;43656;57.746;11.780;2023-03-21T07:31:24;2.85;;;1.77;;
57826;SDS011;43656;57.746;11.780;2023-03-21T07:33:50;3.65;;;1.50;;
57826;SDS011;43656;57.746;11.780;2023-03-21T07:36:16;3.05;;;1.20;;
57826;SDS011;43656;57.746;11.780;2023-03-21T07:38:42;3.75;;;1.25;;
57826;SDS011;43656;57.746;11.780;2023-03-21T07:41:08;2.10;;;1.20;;
57826;SDS011;43656;57.746;11.780;2023-03-21T07:43:33;4.05;;;1.30;;
57826;SDS011;43656;57.746;11.780;2023-03-21T07:45:59;2.95;;;1.30;;
57826;SDS011;43656;57.746;11.780;2023-03-21T07:48:25;4.85;;;1.42;;
57826;SDS011;43656;57.746;11.780;2023-03-21T07:50:51;2.40;;;1.20;;
57826;SDS011;43656;57.746;11.780;2023-03-21T07:53:16;3.80;;;1.50;;
57826;SDS011;43656;57.746;11.780;2023-03-21T07:55:42;3.20;;;1.45;;
57826;SDS011;43656;57.746;11.780;2023-03-21T07:58:07;1.95;;;1.23;;
57826;SDS011;43656;57.746;11.780;2023-03-21T08:00:33;5.40;;;1.30;;
57826;SDS011;43656;57.746;11.780;2023-03-21T08:02:58;5.13;;;1.40;;
57826;SDS011;43656;57.746;11.780;2023-03-21T08:05:29;4.63;;;1.40;;
57826;SDS011;43656;57.746;11.780;2023-03-21T08:07:58;4.38;;;1.23;;
57826;SDS011;43656;57.746;11.780;2023-03-21T08:10:25;3.45;;;1.30;;
57826;SDS011;43656;57.746;11.780;2023-03-21T08:12:50;3.35;;;1.40;;
57826;SDS011;43656;57.746;11.780;2023-03-21T08:15:16;4.25;;;1.30;;
57826;SDS011;43656;57.746;11.780;2023-03-21T08:17:42;3.45;;;1.40;;
57826;SDS011;43656;57.746;11.780;2023-03-21T08:20:10;3.95;;;1.45;;
57826;SDS011;43656;57.746;11.780;2023-03-21T08:22:38;2.63;;;1.17;;
57826;SDS011;43656;57.746;11.780;2023-03-21T08:25:04;2.85;;;1.30;;
57826;SDS011;43656;57.746;11.780;2023-03-21T08:27:32;4.13;;;1.27;;
57826;SDS011;43656;57.746;11.780;2023-03-21T08:29:58;6.25;;;1.38;;
57826;SDS011;43656;57.746;11.780;2023-03-21T08:32:24;3.92;;;1.05;;
57826;SDS011;43656;57.746;11.780;2023-03-21T08:35:03;4.35;;;1.10;;
57826;SDS011;43656;57.746;11.780;2023-03-21T08:37:34;3.95;;;1.20;;
57826;SDS011;43656;57.746;11.780;2023-03-21T08:40:00;4.15;;;1.20;;
57826;SDS011;43656;57.746;11.780;2023-03-21T08:42:26;6.95;;;1.17;;
57826;SDS011;43656;57.746;11.780;2023-03-21T08:44:51;5.68;;;1.30;;
57826;SDS011;43656;57.746;11.780;2023-03-21T08:47:16;3.95;;;1.30;;
57826;SDS011;43656;57.746;11.780;2023-03-21T08:49:42;4.40;;;1.20;;
57826;SDS011;43656;57.746;11.780;2023-03-21T08:52:09;5.80;;;1.15;;
57826;SDS011;43656;57.746;11.780;2023-03-21T08:54:35;6.80;;;1.20;;
57826;SDS011;43656;57.746;11.780;2023-03-21T08:57:01;4.30;;;0.90;;
57826;SDS011;43656;57.746;11.780;2023-03-21T08:59:26;2.97;;;0.90;;
57826;SDS011;43656;57.746;11.780;2023-03-21T09:01:51;2.65;;;1.00;;
57826;SDS011;43656;57.746;11.780;2023-03-21T09:04:17;3.75;;;0.90;;
57826;SDS011;43656;57.746;11.780;2023-03-21T09:06:43;4.28;;;1.17;;
57826;SDS011;43656;57.746;11.780;2023-03-21T09:09:09;4.40;;;1.05;;
57826;SDS011;43656;57.746;11.780;2023-03-21T09:11:36;2.92;;;0.70;;
57826;SDS011;43656;57.746;11.780;2023-03-21T09:14:02;4.13;;;1.10;;
57826;SDS011;43656;57.746;11.780;2023-03-21T09:16:27;4.50;;;1.00;;
57826;SDS011;43656;57.746;11.780;2023-03-21T09:18:53;3.72;;;0.90;;
57826;SDS011;43656;57.746;11.780;2023-03-21T09:21:21;3.55;;;1.00;;
57826;SDS011;43656;57.746;11.780;2023-03-21T09:23:47;4.38;;;1.13;;
57826;SDS011;43656;57.746;11.780;2023-03-21T09:26:20;5.55;;;1.90;;
57826;SDS011;43656;57.746;11.780;2023-03-21T09:28:48;5.15;;;1.40;;
57826;SDS011;43656;57.746;11.780;2023-03-21T09:31:14;4.25;;;1.52;;
57826;SDS011;43656;57.746;11.780;2023-03-21T09:33:43;8.82;;;2.22;;
57826;SDS011;43656;57.746;11.780;2023-03-21T09:36:09;8.60;;;3.22;;
57826;SDS011;43656;57.746;11.780;2023-03-21T09:38:38;9.93;;;3.28;;
57826;SDS011;43656;57.746;11.780;2023-03-21T09:41:53;7.43;;;2.38;;
57826;SDS011;43656;57.746;11.780;2023-03-21T09:49:46;5.70;;;2.35;;
57826;SDS011;43656;57.746;11.780;2023-03-21T09:55:03;6.55;;;2.15;;
57826;SDS011;43656;57.746;11.780;2023-03-21T09:57:43;4.75;;;1.85;;
57826;SDS011;43656;57.746;11.780;2023-03-21T10:00:24;8.23;;;2.13;;
57826;SDS011;43656;57.746;11.780;2023-03-21T10:02:55;5.50;;;2.25;;
57826;SDS011;43656;57.746;11.780;2023-03-21T10:05:29;6.47;;;2.53;;
57826;SDS011;43656;57.746;11.780;2023-03-21T10:08:04;6.30;;;2.15;;
57826;SDS011;43656;57.746;11.780;2023-03-21T10:10:54;6.57;;;2.60;;
57826;SDS011;43656;57.746;11.780;2023-03-21T10:13:27;6.93;;;2.25;;
57826;SDS011;43656;57.746;11.780;2023-03-21T10:15:56;6.70;;;2.47;;
57826;SDS011;43656;57.746;11.780;2023-03-21T10:18:25;5.25;;;2.10;;
57826;SDS011;43656;57.746;11.780;2023-03-21T10:20:54;5.68;;;2.28;;
57826;SDS011;43656;57.746;11.780;2023-03-21T10:23:20;6.40;;;2.03;;
57826;SDS011;43656;57.746;11.780;2023-03-21T10:25:51;7.22;;;2.38;;
57826;SDS011;43656;57.746;11.780;2023-03-21T10:28:21;6.78;;;2.10;;
57826;SDS011;43656;57.746;11.780;2023-03-21T10:30:54;5.35;;;2.20;;
57826;SDS011;43656;57.746;11.780;2023-03-21T10:33:31;7.90;;;2.50;;
57826;SDS011;43656;57.746;11.780;2023-03-21T10:36:04;10.13;;;2.30;;
57826;SDS011;43656;57.746;11.780;2023-03-21T10:38:33;4.72;;;2.20;;
57826;SDS011;43656;57.746;11.780;2023-03-21T10:40:59;6.40;;;2.25;;
57826;SDS011;43656;57.746;11.780;2023-03-21T10:46:07;5.90;;;2.10;;
57826;SDS011;43656;57.746;11.780;2023-03-21T10:48:51;6.72;;;1.88;;
57826;SDS011;43656;57.746;11.780;2023-03-21T10:51:19;4.20;;;1.70;;
57826;SDS011;43656;57.746;11.780;2023-03-21T10:53:49;7.80;;;2.20;;
57826;SDS011;43656;57.746;11.780;2023-03-21T10:56:22;4.10;;;2.05;;
57826;SDS011;43656;57.746;11.780;2023-03-21T10:58:52;4.43;;;2.03;;
57826;SDS011;43656;57.746;11.780;2023-03-21T11:01:28;3.55;;;1.73;;
57826;SDS011;43656;57.746;11.780;2023-03-21T11:04:00;4.47;;;1.95;;
57826;SDS011;43656;57.746;11.780;2023-03-21T11:06:45;5.33;;;2.10;;
57826;SDS011;43656;57.746;11.780;2023-03-21T11:09:20;5.72;;;2.10;;
57826;SDS011;43656;57.746;11.780;2023-03-21T11:19:46;5.03;;;1.90;;
57826;SDS011;43656;57.746;11.780;2023-03-21T11:22:13;5.22;;;2.13;;
57826;SDS011;43656;57.746;11.780;2023-03-21T11:24:39;4.70;;;2.00;;
57826;SDS011;43656;57.746;11.780;2023-03-21T11:27:11;5.68;;;1.90;;
57826;SDS011;43656;57.746;11.780;2023-03-21T11:29:37;7.10;;;2.05;;
57826;SDS011;43656;57.746;11.780;2023-03-21T11:34:46;6.10;;;2.20;;
57826;SDS011;43656;57.746;11.780;2023-03-21T11:37:27;7.68;;;2.05;;
57826;SDS011;43656;57.746;11.780;2023-03-21T11:39:56;5.72;;;2.15;;
57826;SDS011;43656;57.746;11.780;2023-03-21T11:42:51;4.50;;;1.70;;
57826;SDS011;43656;57.746;11.780;2023-03-21T11:45:23;5.57;;;1.77;;
57826;SDS011;43656;57.746;11.780;2023-03-21T11:47:54;3.80;;;1.80;;
57826;SDS011;43656;57.746;11.780;2023-03-21T12:01:57;7.35;;;2.08;;
57826;SDS011;43656;57.746;11.780;2023-03-21T12:20:27;5.20;;;2.20;;
57826;SDS011;43656;57.746;11.780;2023-03-21T12:25:36;6.85;;;2.25;;
57826;SDS011;43656;57.746;11.780;2023-03-21T12:28:45;6.38;;;2.60;;
57826;SDS011;43656;57.746;11.780;2023-03-21T12:31:16;8.00;;;2.30;;
57826;SDS011;43656;57.746;11.780;2023-03-21T12:36:25;8.48;;;2.30;;
57826;SDS011;43656;57.746;11.780;2023-03-21T12:41:39;6.13;;;2.05;;
57826;SDS011;43656;57.746;11.780;2023-03-21T12:44:20;5.97;;;2.30;;
57826;SDS011;43656;57.746;11.780;2023-03-21T12:46:57;5.60;;;1.85;;
57826;SDS011;43656;57.746;11.780;2023-03-21T12:52:10;6.85;;;2.00;;
57826;SDS011;43656;57.746;11.780;2023-03-21T12:54:41;6.70;;;1.98;;
57826;SDS011;43656;57.746;11.780;2023-03-21T12:57:23;7.00;;;2.10;;
57826;SDS011;43656;57.746;11.780;2023-03-21T13:02:42;9.57;;;2.03;;
57826;SDS011;43656;57.746;11.780;2023-03-21T13:07:50;4.88;;;1.20;;
57826;SDS011;43656;57.746;11.780;2023-03-21T13:10:22;2.92;;;1.00;;
57826;SDS011;43656;57.746;11.780;2023-03-21T13:21:07;3.58;;;1.30;;
57826;SDS011;43656;57.746;11.780;2023-03-21T13:23:45;2.85;;;1.55;;
57826;SDS011;43656;57.746;11.780;2023-03-21T13:26:30;2.85;;;1.85;;
57826;SDS011;43656;57.746;11.780;2023-03-21T13:28:57;5.85;;;2.30;;
57826;SDS011;43656;57.746;11.780;2023-03-21T13:31:25;3.40;;;1.90;;
57826;SDS011;43656;57.746;11.780;2023-03-21T13:33:58;3.40;;;2.17;;
57826;SDS011;43656;57.746;11.780;2023-03-21T13:36:24;3.63;;;2.40;;
57826;SDS011;43656;57.746;11.780;2023-03-21T13:38:53;5.20;;;2.53;;
57826;SDS011;43656;57.746;11.780;2023-03-21T13:49:00;5.93;;;3.25;;
57826;SDS011;43656;57.746;11.780;2023-03-21T13:59:11;8.60;;;3.00;;
57826;SDS011;43656;57.746;11.780;2023-03-21T14:01:44;5.53;;;2.95;;
57826;SDS011;43656;57.746;11.780;2023-03-21T14:04:25;6.40;;;3.03;;
57826;SDS011;43656;57.746;11.780;2023-03-21T14:09:20;5.63;;;3.22;;
57826;SDS011;43656;57.746;11.780;2023-03-21T14:11:49;7.30;;;3.38;;
57826;SDS011;43656;57.746;11.780;2023-03-21T14:14:17;6.32;;;3.60;;
57826;SDS011;43656;57.746;11.780;2023-03-21T14:16:44;4.90;;;3.30;;
57826;SDS011;43656;57.746;11.780;2023-03-21T14:19:10;4.85;;;3.08;;
57826;SDS011;43656;57.746;11.780;2023-03-21T14:21:36;5.20;;;3.17;;
57826;SDS011;43656;57.746;11.780;2023-03-21T14:24:11;5.47;;;3.35;;
57826;SDS011;43656;57.746;11.780;2023-03-21T14:26:47;6.15;;;3.72;;
57826;SDS011;43656;57.746;11.780;2023-03-21T14:29:19;9.57;;;3.58;;
57826;SDS011;43656;57.746;11.780;2023-03-21T14:31:48;6.82;;;4.03;;
57826;SDS011;43656;57.746;11.780;2023-03-21T14:34:14;8.50;;;3.90;;
57826;SDS011;43656;57.746;11.780;2023-03-21T14:36:41;6.60;;;4.50;;
57826;SDS011;43656;57.746;11.780;2023-03-21T14:39:17;5.50;;;4.03;;
57826;SDS011;43656;57.746;11.780;2023-03-21T14:41:51;6.15;;;4.40;;
57826;SDS011;43656;57.746;11.780;2023-03-21T14:46:46;8.00;;;4.30;;
57826;SDS011;43656;57.746;11.780;2023-03-21T14:49:13;5.72;;;4.00;;
57826;SDS011;43656;57.746;11.780;2023-03-21T14:51:44;9.10;;;4.10;;
57826;SDS011;43656;57.746;11.780;2023-03-21T14:54:11;7.03;;;4.45;;
57826;SDS011;43656;57.746;11.780;2023-03-21T14:56:42;6.35;;;4.38;;
57826;SDS011;43656;57.746;11.780;2023-03-21T14:59:11;7.57;;;4.10;;
57826;SDS011;43656;57.746;11.780;2023-03-21T15:01:40;7.60;;;4.55;;
57826;SDS011;43656;57.746;11.780;2023-03-21T15:04:06;10.40;;;4.53;;
57826;SDS011;43656;57.746;11.780;2023-03-21T15:06:32;7.47;;;4.35;;
57826;SDS011;43656;57.746;11.780;2023-03-21T15:09:00;6.13;;;4.25;;
57826;SDS011;43656;57.746;11.780;2023-03-21T15:11:29;5.82;;;4.20;;
57826;SDS011;43656;57.746;11.780;2023-03-21T15:14:02;7.70;;;4.07;;
57826;SDS011;43656;57.746;11.780;2023-03-21T15:16:30;6.90;;;4.53;;
57826;SDS011;43656;57.746;11.780;2023-03-21T15:18:56;5.40;;;4.25;;
57826;SDS011;43656;57.746;11.780;2023-03-21T15:21:45;7.35;;;4.05;;
57826;SDS011;43656;57.746;11.780;2023-03-21T15:24:24;8.55;;;4.60;;
57826;SDS011;43656;57.746;11.780;2023-03-21T15:26:55;10.65;;;4.60;;
57826;SDS011;43656;57.746;11.780;2023-03-21T15:29:23;7.25;;;4.70;;
57826;SDS011;43656;57.746;11.780;2023-03-21T15:31:51;7.93;;;5.00;;
57826;SDS011;43656;57.746;11.780;2023-03-21T15:34:27;9.52;;;5.00;;
57826;SDS011;43656;57.746;11.780;2023-03-21T15:36:55;8.60;;;5.40;;
57826;SDS011;43656;57.746;11.780;2023-03-21T15:39:31;10.38;;;5.53;;
57826;SDS011;43656;57.746;11.780;2023-03-21T15:42:04;11.68;;;5.93;;
57826;SDS011;43656;57.746;11.780;2023-03-21T15:44:46;8.65;;;5.53;;
57826;SDS011;43656;57.746;11.780;2023-03-21T15:47:13;8.05;;;5.65;;
57826;SDS011;43656;57.746;11.780;2023-03-21T15:49:39;9.07;;;5.90;;
57826;SDS011;43656;57.746;11.780;2023-03-21T15:54:43;9.60;;;6.28;;
57826;SDS011;43656;57.746;11.780;2023-03-21T15:57:24;10.63;;;6.40;;
57826;SDS011;43656;57.746;11.780;2023-03-21T16:00:02;18.60;;;6.90;;
57826;SDS011;43656;57.746;11.780;2023-03-21T16:02:42;14.38;;;7.75;;
57826;SDS011;43656;57.746;11.780;2023-03-21T16:07:45;10.57;;;6.97;;
57826;SDS011;43656;57.746;11.780;2023-03-21T16:10:31;11.75;;;7.47;;
57826;SDS011;43656;57.746;11.780;2023-03-21T16:13:02;14.48;;;8.02;;
57826;SDS011;43656;57.746;11.780;2023-03-21T16:15:29;13.35;;;7.88;;
57826;SDS011;43656;57.746;11.780;2023-03-21T16:17:56;13.30;;;7.20;;
57826;SDS011;43656;57.746;11.780;2023-03-21T16:20:25;12.68;;;7.60;;
57826;SDS011;43656;57.746;11.780;2023-03-21T16:22:52;9.95;;;7.40;;
57826;SDS011;43656;57.746;11.780;2023-03-21T16:25:18;12.00;;;7.65;;
57826;SDS011;43656;57.746;11.780;2023-03-21T16:27:44;13.43;;;7.63;;
57826;SDS011;43656;57.746;11.780;2023-03-21T16:30:11;11.18;;;7.35;;
57826;SDS011;43656;57.746;11.780;2023-03-21T16:32:39;10.25;;;7.00;;
57826;SDS011;43656;57.746;11.780;2023-03-21T16:35:04;13.63;;;7.43;;
57826;SDS011;43656;57.746;11.780;2023-03-21T16:37:31;12.88;;;8.43;;
57826;SDS011;43656;57.746;11.780;2023-03-21T16:39:56;12.10;;;8.20;;
57826;SDS011;43656;57.746;11.780;2023-03-21T16:42:21;12.70;;;7.88;;
57826;SDS011;43656;57.746;11.780;2023-03-21T16:44:47;13.07;;;7.63;;
57826;SDS011;43656;57.746;11.780;2023-03-21T16:47:13;13.68;;;7.88;;
57826;SDS011;43656;57.746;11.780;2023-03-21T16:49:41;10.52;;;7.82;;
57826;SDS011;43656;57.746;11.780;2023-03-21T16:52:07;12.32;;;7.45;;
57826;SDS011;43656;57.746;11.780;2023-03-21T16:54:34;9.73;;;6.78;;
57826;SDS011;43656;57.746;11.780;2023-03-21T16:56:59;12.32;;;6.82;;
57826;SDS011;43656;57.746;11.780;2023-03-21T16:59:28;11.18;;;7.68;;
57826;SDS011;43656;57.746;11.780;2023-03-21T17:01:54;12.25;;;7.50;;
57826;SDS011;43656;57.746;11.780;2023-03-21T17:04:19;10.20;;;7.18;;
57826;SDS011;43656;57.746;11.780;2023-03-21T17:06:47;11.98;;;7.53;;